Time;durP1;ratioP1;P1;durP2;ratioP2;P2;SDS_P1;SDS_P2;PMS_P1;PMS_P2;Temp;Humidity;BMP_temperature;BMP_pressure;BME280_temperature;BME280_humidity;BME280_pressure;Samples;Min_cycle;Max_cycle;Signal;HPM_P1;HPM_P2
2022/08/04 00:01:31;;;;;;;2.87;1.93;;;22.50;92.20;;;23.58;76.13;97900.88;5058738;28;20449;-81
2022/08/04 00:04:07;;;;;;;2.70;2.03;;;22.50;92.20;;;23.54;76.37;97898.75;5056951;28;20471;-81
2022/08/04 00:06:56;;;;;;;2.40;1.90;;;22.50;92.40;;;23.57;76.40;97896.63;5055936;28;20464;-81
2022/08/04 00:09:38;;;;;;;6.40;2.20;;;22.60;92.00;;;23.52;76.41;97898.25;5056191;28;21043;-81
2022/08/04 00:12:11;;;;;;;2.37;1.97;;;22.50;92.10;;;23.44;76.72;97896.13;5057040;28;20479;-81
2022/08/04 00:14:50;;;;;;;2.40;1.80;;;22.50;92.10;;;23.41;77.38;97894.00;5056914;28;20507;-82
2022/08/04 00:17:25;;;;;;;2.97;1.90;;;22.40;92.30;;;23.31;77.40;97894.00;5056293;28;20529;-82
2022/08/04 00:20:00;;;;;;;5.43;2.20;;;22.30;92.40;;;23.32;77.69;97895.63;5056034;28;20461;-81
2022/08/04 00:22:31;;;;;;;2.43;1.80;;;22.40;92.20;;;23.29;77.70;97893.47;5055263;28;21490;-81
2022/08/04 00:25:03;;;;;;;2.37;1.80;;;22.30;92.40;;;23.30;77.75;97891.59;5055409;28;20881;-81
2022/08/04 00:27:33;;;;;;;3.00;2.30;;;22.30;92.20;;;23.28;77.66;97896.44;5057182;28;20472;-81
2022/08/04 00:30:08;;;;;;;2.17;1.97;;;22.30;92.20;;;23.24;77.84;97895.38;5057541;28;20480;-81
2022/08/04 00:32:40;;;;;;;6.07;2.13;;;22.30;92.30;;;23.21;78.09;97902.06;5055324;28;20846;-81
2022/08/04 00:35:13;;;;;;;2.30;1.90;;;22.20;92.50;;;23.11;78.60;97896.75;5055917;28;20465;-82
2022/08/04 00:37:45;;;;;;;6.07;2.70;;;22.10;92.50;;;23.04;79.52;97897.03;5055441;28;20460;-81
2022/08/04 00:40:50;;;;;;;2.20;2.00;;;22.10;92.50;;;22.92;80.59;97896.50;5056804;28;20531;-81
2022/08/04 00:43:32;;;;;;;2.23;2.00;;;22.00;92.80;;;22.90;80.65;97892.53;5058022;28;20994;-81
2022/08/04 00:46:39;;;;;;;4.13;2.20;;;22.00;92.70;;;22.93;80.79;97897.31;5057260;28;20450;-81
2022/08/04 00:50:00;;;;;;;2.50;2.10;;;21.90;93.10;;;22.92;80.74;97895.72;5057966;28;20452;-82
2022/08/04 00:52:50;;;;;;;5.33;2.20;;;21.90;93.40;;;22.88;81.14;97894.66;5056220;28;20464;-81
2022/08/04 00:56:11;;;;;;;2.83;2.10;;;21.80;93.20;;;22.84;81.17;97886.38;5059814;28;21077;-81
2022/08/04 00:58:59;;;;;;;3.53;2.03;;;21.80;93.10;;;22.84;80.90;97890.94;5059412;28;20494;-81
2022/08/04 01:01:58;;;;;;;5.13;1.87;;;21.80;92.90;;;22.71;81.66;97888.81;5059400;28;21056;-81
2022/08/04 01:04:45;;;;;;;3.43;2.30;;;21.80;93.00;;;22.62;82.31;97888.53;5057863;28;20545;-81
2022/08/04 01:07:37;;;;;;;2.93;2.07;;;21.70;93.10;;;22.56;82.47;97885.06;5058420;28;20968;-82
2022/08/04 01:10:19;;;;;;;2.40;1.90;;;21.50;93.50;;;22.53;82.69;97887.47;5054778;28;20473;-81
2022/08/04 01:13:16;;;;;;;2.40;2.00;;;21.50;93.30;;;22.50;83.38;97883.47;5056592;28;20460;-81
2022/08/04 01:15:56;;;;;;;2.60;1.90;;;21.40;93.40;;;22.45;83.69;97885.34;5057639;28;20526;-81
2022/08/04 01:18:43;;;;;;;3.10;2.20;;;21.40;93.40;;;22.44;83.67;97889.06;5057509;28;20882;-81
2022/08/04 01:21:58;;;;;;;4.40;2.47;;;21.40;93.40;;;22.48;83.83;97879.47;5057461;28;20460;-81
2022/08/04 01:24:58;;;;;;;3.40;2.20;;;21.40;93.70;;;22.45;83.96;97880.81;5052524;28;20977;-82
2022/08/04 01:27:54;;;;;;;5.63;2.30;;;21.30;93.80;;;22.38;84.34;97879.47;5056270;28;20499;-81
2022/08/04 01:30:28;;;;;;;3.03;2.20;;;21.30;93.80;;;22.33;84.38;97880.28;5055033;28;20449;-81
2022/08/04 01:33:04;;;;;;;2.43;1.90;;;21.20;93.80;;;22.26;84.35;97874.41;5055946;28;20511;-81
2022/08/04 01:35:44;;;;;;;2.17;1.93;;;21.20;93.80;;;22.22;84.99;97873.34;5054057;28;21077;-81
2022/08/04 01:38:22;;;;;;;4.43;2.20;;;21.20;93.90;;;22.28;84.78;97877.63;5060724;28;20890;-82
2022/08/04 01:40:55;;;;;;;5.60;2.30;;;21.20;93.80;;;22.25;85.03;97870.13;5062033;28;20463;-81
2022/08/04 01:43:27;;;;;;;3.00;2.27;;;21.10;94.00;;;22.23;84.53;97882.94;5060829;28;20483;-81
2022/08/04 01:46:00;;;;;;;4.43;2.30;;;21.20;93.80;;;22.23;84.96;97872.28;5063400;28;20538;-81
2022/08/04 01:48:30;;;;;;;4.23;2.30;;;21.30;93.60;;;22.16;84.72;97869.06;5060843;28;20465;-81
2022/08/04 01:51:08;;;;;;;2.73;2.40;;;21.20;93.60;;;22.11;85.61;97869.06;5061463;28;20472;-81
2022/08/04 01:53:40;;;;;;;2.17;1.90;;;21.10;93.70;;;22.02;85.67;97871.47;5061037;28;20452;-82
2022/08/04 01:56:11;;;;;;;3.40;2.60;;;21.00;94.00;;;21.94;86.51;97863.97;5059214;28;20527;-81
2022/08/04 01:58:41;;;;;;;3.90;2.80;;;20.90;94.20;;;21.91;86.86;97861.84;5060002;28;20459;-81
2022/08/04 02:01:13;;;;;;;3.10;2.10;;;20.90;94.30;;;21.89;87.02;97865.81;5060602;28;20464;-81
2022/08/04 02:03:46;;;;;;;2.90;2.30;;;20.90;94.20;;;21.83;87.63;97861.56;5059610;28;20480;-81
2022/08/04 02:06:49;;;;;;;2.50;1.93;;;20.90;94.20;;;21.85;88.21;97864.75;5064939;28;20994;-81
2022/08/04 02:09:28;;;;;;;2.97;2.20;;;20.80;94.50;;;21.87;88.18;97866.06;5060691;28;20483;-81
2022/08/04 02:12:06;;;;;;;3.83;2.07;;;20.80;94.40;;;21.89;87.70;97866.63;5057285;28;20468;-82
2022/08/04 02:14:53;;;;;;;2.90;2.20;;;20.90;94.20;;;21.91;87.47;97861.06;5061630;28;20467;-81
2022/08/04 02:17:31;;;;;;;3.53;2.47;;;20.90;94.10;;;21.89;87.04;97857.84;5061120;28;20460;-82
2022/08/04 02:20:12;;;;;;;2.60;2.27;;;20.90;94.20;;;21.84;87.41;97860.47;5063407;28;20436;-81
2022/08/04 02:22:52;;;;;;;3.03;2.33;;;20.90;94.30;;;21.79;87.72;97850.63;5059694;28;20460;-81
2022/08/04 02:25:27;;;;;;;5.37;2.20;;;20.80;94.30;;;21.74;88.19;97852.47;5062889;28;21119;-81
2022/08/04 02:28:12;;;;;;;8.00;2.60;;;20.70;94.40;;;21.71;88.46;97847.66;5060712;28;20918;-81
2022/08/04 02:30:56;;;;;;;2.77;2.27;;;20.60;94.70;;;21.62;89.21;97852.72;5062193;28;20456;-81
2022/08/04 02:33:37;;;;;;;2.70;2.23;;;20.50;94.70;;;21.59;89.19;97848.69;5058883;28;21007;-81
2022/08/04 02:36:10;;;;;;;5.27;2.50;;;20.60;94.60;;;21.57;89.64;97853.50;5058703;28;21051;-81
2022/08/04 02:38:56;;;;;;;3.73;2.43;;;20.50;94.90;;;21.50;90.49;97850.28;5056375;28;20519;-82
2022/08/04 02:41:28;;;;;;;3.03;2.30;;;20.40;95.10;;;21.43;90.85;97852.38;5062002;28;20476;-81
2022/08/04 02:44:00;;;;;;;4.17;2.40;;;20.30;95.10;;;21.45;91.03;97847.59;5061446;28;20987;-81
2022/08/04 02:46:31;;;;;;;2.50;2.17;;;20.30;95.20;;;21.50;90.53;97841.50;5059500;28;20492;-81
2022/08/04 02:49:04;;;;;;;5.43;2.40;;;20.30;95.10;;;21.48;90.11;97844.44;5059200;28;20496;-81
2022/08/04 02:51:37;;;;;;;3.10;2.63;;;20.40;95.00;;;21.42;91.30;97845.47;5058555;28;20582;-81
2022/08/04 02:54:07;;;;;;;4.50;2.67;;;20.30;95.20;;;21.41;90.73;97843.06;5059926;28;20879;-81
2022/08/04 02:56:38;;;;;;;2.63;2.27;;;20.30;95.20;;;21.34;91.73;97843.31;5059300;28;21106;-81
2022/08/04 02:59:09;;;;;;;4.63;2.50;;;20.20;95.30;;;21.37;90.98;97845.47;5061333;28;20962;-81
2022/08/04 03:01:39;;;;;;;4.40;2.63;;;20.30;94.90;;;21.36;90.97;97838.53;5057791;28;20517;-82
2022/08/04 03:04:49;;;;;;;9.97;2.40;;;20.40;94.80;;;21.31;91.45;97835.84;5059342;28;20504;-82
2022/08/04 03:08:08;;;;;;;4.47;2.40;;;20.40;94.90;;;21.28;91.41;97833.69;5060229;28;20549;-82
2022/08/04 03:11:37;;;;;;;3.47;2.83;;;20.40;94.90;;;21.24;92.09;97837.94;5060686;28;20472;-86
2022/08/04 03:14:52;;;;;;;4.00;2.60;;;20.20;95.30;;;21.24;91.90;97837.16;4981759;28;20547;-82
2022/08/04 03:18:08;;;;;;;2.93;2.20;;;20.20;95.20;;;21.21;91.92;97841.13;5060909;28;20472;-82
2022/08/04 03:21:22;;;;;;;2.73;2.50;;;20.20;95.20;;;21.20;92.28;97841.41;5057136;28;20457;-82
2022/08/04 03:24:44;;;;;;;3.50;2.60;;;20.20;95.30;;;21.18;92.37;97844.31;5040593;28;20535;-82
2022/08/04 03:27:52;;;;;;;3.70;2.30;;;20.10;95.40;;;21.20;92.61;97836.06;5060589;28;20463;-82
2022/08/04 03:30:29;;;;;;;2.93;2.63;;;20.10;95.40;;;21.17;92.83;97840.06;5055438;28;20490;-82
2022/08/04 03:33:44;;;;;;;13.90;2.80;;;20.10;95.50;;;21.17;93.21;97847.25;5060785;28;20517;-82
2022/08/04 03:37:03;;;;;;;3.23;2.50;;;20.00;95.50;;;21.15;92.62;97839.50;5059415;28;20461;-81
2022/08/04 03:40:29;;;;;;;2.67;2.10;;;20.10;95.50;;;21.13;92.31;97838.97;5057641;28;20511;-82
2022/08/04 03:43:58;;;;;;;4.60;2.80;;;20.10;95.40;;;21.07;93.17;97842.63;5058807;28;20481;-87
2022/08/04 03:47:29;;;;;;;3.73;2.73;;;20.00;95.50;;;21.07;93.67;97850.59;5058146;28;20487;-82
2022/08/04 03:53:07;;;;;;;3.20;2.50;;;20.00;95.70;;;21.04;93.98;97846.59;5020706;28;20522;-82
2022/08/04 03:53:54;;;;;;;2.63;2.30;;;19.90;95.70;;;21.04;94.08;97843.16;5058405;28;20464;-86
2022/08/04 03:57:01;;;;;;;3.90;3.30;;;19.90;95.70;;;20.99;94.45;97840.47;5058438;28;20463;-83
2022/08/04 04:00:09;;;;;;;2.50;2.30;;;19.90;95.80;;;20.97;94.33;97838.06;5057486;28;21008;-82
2022/08/04 04:03:40;;;;;;;3.37;2.67;;;19.90;95.80;;;20.95;94.10;97842.03;5060459;28;20461;-83
2022/08/04 04:07:17;;;;;;;2.57;2.37;;;19.80;95.80;;;20.95;94.88;97842.03;5027069;28;20477;-83
2022/08/04 04:10:17;;;;;;;4.30;3.10;;;19.90;95.90;;;20.91;94.85;97846.28;5020242;28;20602;-82
2022/08/04 04:13:39;;;;;;;6.00;2.57;;;19.80;95.80;;;20.87;95.03;97839.88;5060031;28;20502;-82
2022/08/04 04:16:38;;;;;;;2.60;2.33;;;19.80;95.90;;;20.86;94.84;97840.94;5035460;28;20497;-82
2022/08/04 04:19:47;;;;;;;2.93;2.57;;;19.80;95.80;;;20.80;95.42;97848.06;5055258;28;20514;-82
2022/08/04 04:23:00;;;;;;;3.90;2.97;;;19.90;95.70;;;20.69;96.84;97850.94;5059231;28;20507;-82
2022/08/04 04:25:41;;;;;;;8.67;2.70;;;19.80;95.60;;;20.61;97.23;97848.75;5046822;28;20519;-82
2022/08/04 04:28:55;;;;;;;2.87;2.53;;;19.70;96.00;;;20.51;98.35;97850.28;5061789;28;20552;-82
2022/08/04 04:32:04;;;;;;;3.03;2.73;;;19.50;96.30;;;20.44;98.77;97847.03;5062643;28;20470;-82
2022/08/04 04:34:53;;;;;;;4.50;2.70;;;19.50;96.20;;;20.37;100.00;97851.78;5061698;28;20456;-82
2022/08/04 04:37:44;;;;;;;3.10;2.80;;;19.50;96.40;;;20.35;100.00;97851.22;5060174;28;20452;-82
2022/08/04 04:40:41;;;;;;;3.90;3.00;;;19.50;96.30;;;20.31;100.00;97850.13;5060415;28;20997;-82
2022/08/04 04:44:18;;;;;;;3.23;2.27;;;19.50;96.40;;;20.37;100.00;97854.44;5061075;28;20465;-82
2022/08/04 04:47:04;;;;;;;5.20;2.73;;;19.40;96.70;;;20.43;100.00;97853.41;5059653;28;21028;-82
2022/08/04 04:49:49;;;;;;;3.07;2.43;;;19.50;96.40;;;20.41;100.00;97854.75;5058839;28;21317;-82
2022/08/04 04:52:31;;;;;;;13.63;2.77;;;19.40;96.60;;;20.41;100.00;97850.19;5060741;28;20483;-82
2022/08/04 04:55:16;;;;;;;7.00;3.30;;;19.40;96.90;;;20.40;100.00;97859.25;5058414;28;20464;-82
2022/08/04 04:57:50;;;;;;;4.43;2.50;;;19.40;96.90;;;20.42;100.00;97866.94;5060074;28;20469;-83
2022/08/04 05:00:26;;;;;;;3.57;2.70;;;19.40;97.00;;;20.43;100.00;97869.38;5062044;28;20954;-83
2022/08/04 05:03:37;;;;;;;3.60;2.43;;;19.40;96.80;;;20.44;100.00;97865.63;5059111;28;20527;-82
2022/08/04 05:06:36;;;;;;;2.70;2.13;;;19.40;97.00;;;20.46;100.00;97868.84;5051351;28;20487;-82
2022/08/04 05:09:26;;;;;;;3.40;2.90;;;19.40;97.00;;;20.46;100.00;97879.47;5059284;28;20472;-82
2022/08/04 05:12:37;;;;;;;4.10;2.90;;;19.40;97.00;;;20.45;100.00;97871.75;5061428;28;20529;-82
2022/08/04 05:15:36;;;;;;;3.20;2.70;;;19.50;97.00;;;20.52;100.00;97872.34;5058596;28;20987;-82
2022/08/04 05:18:11;;;;;;;3.10;2.70;;;19.40;97.10;;;20.58;100.00;97871.34;5060133;28;20467;-82
2022/08/04 05:20:47;;;;;;;4.20;2.93;;;19.50;96.90;;;20.62;100.00;97875.06;5060828;28;20452;-82
2022/08/04 05:23:23;;;;;;;6.30;2.70;;;19.50;97.00;;;20.65;100.00;97871.91;5060626;28;20448;-83
2022/08/04 05:25:57;;;;;;;4.67;3.53;;;19.50;97.20;;;20.67;100.00;97876.97;5060960;28;20492;-82
2022/08/04 05:28:39;;;;;;;3.83;2.37;;;19.60;97.10;;;20.67;100.00;97872.44;5060540;28;20534;-82
2022/08/04 05:31:15;;;;;;;6.47;3.27;;;19.60;97.20;;;20.68;100.00;97883.88;5060702;28;20459;-82
2022/08/04 05:33:53;;;;;;;3.03;2.73;;;19.70;97.00;;;20.74;100.00;97874.88;5061560;28;20838;-82
2022/08/04 05:36:30;;;;;;;3.50;3.13;;;19.70;96.90;;;20.79;100.00;97883.69;5060616;28;20489;-82
2022/08/04 05:39:16;;;;;;;4.10;3.07;;;19.80;96.80;;;20.84;100.00;97872.28;5061499;28;20483;-82
2022/08/04 05:41:47;;;;;;;3.60;3.07;;;19.80;96.60;;;20.91;100.00;97875.53;5059627;28;20460;-82
2022/08/04 05:44:28;;;;;;;7.47;2.80;;;19.80;96.60;;;20.93;99.49;97873.41;5060451;28;20495;-82
2022/08/04 05:46:59;;;;;;;5.00;3.30;;;19.90;96.70;;;20.98;99.57;97876.09;5060359;28;20465;-82
2022/08/04 05:49:30;;;;;;;4.03;3.13;;;20.00;96.70;;;21.02;100.00;97874.53;5059540;28;20503;-82
2022/08/04 05:52:03;;;;;;;3.40;2.90;;;19.90;96.80;;;21.03;100.00;97876.91;5058849;28;20974;-82
2022/08/04 05:54:35;;;;;;;5.00;3.23;;;19.90;96.90;;;21.07;99.22;97874.53;5058877;28;20471;-82
2022/08/04 05:57:07;;;;;;;3.40;3.10;;;20.00;96.70;;;21.12;99.19;97877.25;5061764;28;20461;-82
2022/08/04 05:59:45;;;;;;;3.30;2.53;;;20.10;96.50;;;21.16;98.59;97878.34;5059763;28;21062;-82
2022/08/04 06:02:18;;;;;;;3.53;2.50;;;20.10;96.70;;;21.21;98.84;97878.34;5062252;28;20826;-82
2022/08/04 06:04:51;;;;;;;3.70;2.97;;;20.10;96.70;;;21.28;98.77;97876.25;5059848;28;20481;-82
2022/08/04 06:07:21;;;;;;;2.97;2.67;;;20.20;96.50;;;21.33;98.11;97873.63;5059796;28;20487;-82
2022/08/04 06:09:50;;;;;;;3.70;2.87;;;20.30;96.40;;;21.38;97.96;97864.88;5059522;28;20554;-82
2022/08/04 06:12:25;;;;;;;3.50;3.00;;;20.30;96.60;;;21.42;97.99;97874.72;5060354;28;20464;-82
2022/08/04 06:14:57;;;;;;;6.40;2.70;;;20.30;96.60;;;21.49;97.58;97874.47;5058293;28;20513;-82
2022/08/04 06:17:35;;;;;;;4.20;3.20;;;20.40;96.60;;;21.55;96.90;97871.56;5059628;28;20980;-82
2022/08/04 06:20:30;;;;;;;4.60;2.60;;;20.50;96.20;;;21.63;96.25;97872.13;5058794;28;20524;-82
2022/08/04 06:23:08;;;;;;;7.30;2.87;;;20.60;96.50;;;21.69;95.74;97863.91;5060518;28;20464;-82
2022/08/04 06:25:44;;;;;;;5.93;3.00;;;20.70;96.20;;;21.75;95.75;97870.03;5063355;28;20491;-82
2022/08/04 06:28:15;;;;;;;6.00;2.83;;;20.70;96.30;;;21.80;95.22;97872.69;5061322;28;20443;-82
2022/08/04 06:30:46;;;;;;;3.33;2.70;;;20.80;96.10;;;21.83;95.58;97867.66;5063274;28;20488;-82
2022/08/04 06:33:26;;;;;;;4.20;2.60;;;20.80;96.10;;;21.86;94.63;97869.81;5063044;28;20463;-82
2022/08/04 06:35:58;;;;;;;3.80;3.00;;;20.90;96.10;;;21.90;94.90;97864.78;5062831;28;21008;-82
2022/08/04 06:38:29;;;;;;;3.43;2.80;;;20.90;96.00;;;21.95;94.70;97862.13;5060843;28;20490;-82
2022/08/04 06:41:02;;;;;;;6.20;2.60;;;20.90;96.10;;;21.98;94.61;97867.72;5061605;28;21041;-83
2022/08/04 06:43:33;;;;;;;4.27;2.53;;;21.00;96.10;;;22.01;95.17;97858.41;5062361;28;20464;-82
2022/08/04 06:46:12;;;;;;;4.60;3.50;;;21.00;96.10;;;22.08;94.19;97864.25;5062331;28;21434;-82
2022/08/04 06:48:45;;;;;;;3.70;2.90;;;21.10;96.00;;;22.13;94.16;97866.94;5062477;28;20523;-82
2022/08/04 06:51:16;;;;;;;2.97;2.73;;;21.20;95.90;;;22.20;93.91;97862.16;5061776;28;20455;-82
2022/08/04 06:54:00;;;;;;;6.27;3.20;;;21.20;95.80;;;22.26;93.32;97861.09;5063107;28;20538;-82
2022/08/04 06:56:32;;;;;;;3.17;2.60;;;21.30;95.80;;;22.32;93.07;97868.00;5064107;28;20982;-82
2022/08/04 06:59:02;;;;;;;4.50;3.17;;;21.30;95.80;;;22.38;93.15;97863.50;5062767;28;20475;-82
2022/08/04 07:01:35;;;;;;;5.97;3.20;;;21.40;95.80;;;22.45;92.92;97859.50;5062391;28;20473;-81
2022/08/04 07:04:06;;;;;;;4.70;3.00;;;21.50;95.80;;;22.54;92.51;97857.06;5063289;28;20464;-82
2022/08/04 07:06:37;;;;;;;13.13;3.13;;;21.60;95.70;;;22.61;91.72;97862.13;5062704;28;20508;-82
2022/08/04 07:09:07;;;;;;;7.83;2.77;;;21.60;95.30;;;22.69;90.76;97856.28;5060835;28;21016;-82
2022/08/04 07:11:37;;;;;;;3.33;2.60;;;21.70;95.30;;;22.76;90.83;97846.16;5061387;28;20468;-82
2022/08/04 07:14:14;;;;;;;3.50;2.60;;;21.80;95.30;;;22.84;89.78;97849.03;5065118;28;20463;-82
2022/08/04 07:16:44;;;;;;;3.93;2.87;;;21.90;95.00;;;22.92;89.71;97853.03;5061305;28;20468;-82
2022/08/04 07:19:14;;;;;;;6.43;3.27;;;22.00;95.10;;;22.99;89.13;97838.34;5062117;28;20515;-82
2022/08/04 07:21:47;;;;;;;3.37;2.70;;;22.10;94.90;;;23.07;88.71;97850.34;5059243;28;20469;-83
2022/08/04 07:24:38;;;;;;;5.63;2.87;;;22.20;94.90;;;23.16;88.07;97843.34;5061927;28;20471;-82
2022/08/04 07:27:09;;;;;;;3.33;2.73;;;22.30;94.70;;;23.23;87.65;97840.38;5062596;28;20492;-82
2022/08/04 07:29:38;;;;;;;4.00;2.60;;;22.30;94.60;;;23.29;87.39;97836.66;5061114;28;20507;-82
2022/08/04 07:32:09;;;;;;;3.50;2.57;;;22.40;94.70;;;23.34;87.56;97837.41;5061362;28;20496;-82
2022/08/04 07:34:41;;;;;;;9.23;3.07;;;22.50;94.80;;;23.42;87.18;97834.22;5060395;28;20970;-82
2022/08/04 07:37:17;;;;;;;3.80;3.30;;;22.50;94.60;;;23.49;86.53;97837.38;5062934;28;20517;-83
2022/08/04 07:39:46;;;;;;;3.90;2.60;;;22.60;94.50;;;23.55;86.09;97835.47;5061800;28;20492;-82
2022/08/04 07:42:20;;;;;;;3.73;2.57;;;22.70;94.50;;;23.61;85.71;97836.22;5061285;28;20513;-82
2022/08/04 07:44:49;;;;;;;4.63;3.00;;;22.80;94.50;;;23.66;85.65;97834.34;5061270;28;20457;-82
2022/08/04 07:47:19;;;;;;;9.00;2.97;;;22.80;94.30;;;23.72;84.89;97845.78;5063747;28;20487;-82
2022/08/04 07:49:54;;;;;;;7.97;3.80;;;22.90;94.30;;;23.79;84.69;97840.94;5062378;28;20607;-83
2022/08/04 07:52:27;;;;;;;4.53;2.70;;;23.00;94.20;;;23.83;84.38;97836.63;5060597;28;20465;-82
2022/08/04 07:54:56;;;;;;;4.13;3.10;;;23.10;94.20;;;23.90;83.99;97829.13;5061808;28;20483;-83
2022/08/04 07:57:25;;;;;;;6.37;2.83;;;23.10;94.00;;;23.98;83.55;97834.66;5059844;28;20950;-83
2022/08/04 08:00:13;;;;;;;6.43;2.10;;;23.20;94.00;;;24.05;83.05;97832.47;5061466;28;20460;-82
2022/08/04 08:02:43;;;;;;;3.10;2.70;;;23.30;93.90;;;24.13;82.61;97830.31;5062779;28;20453;-82
2022/08/04 08:05:17;;;;;;;8.60;2.97;;;23.40;93.80;;;24.19;81.83;97830.00;5060578;28;20449;-82
2022/08/04 08:07:47;;;;;;;3.73;2.67;;;23.50;93.60;;;24.27;80.49;97831.25;5061133;28;20464;-83
2022/08/04 08:10:22;;;;;;;10.10;3.20;;;23.60;93.30;;;24.36;79.55;97833.06;5061276;28;20476;-82
2022/08/04 08:12:52;;;;;;;4.10;2.53;;;23.70;93.10;;;24.45;78.78;97833.25;5061702;28;20515;-82
2022/08/04 08:15:22;;;;;;;7.60;2.97;;;23.80;92.90;;;24.53;78.23;97830.78;5059942;28;20472;-83
2022/08/04 08:17:51;;;;;;;4.13;2.80;;;23.90;92.90;;;24.63;78.09;97823.72;5061678;28;20560;-82
2022/08/04 08:20:30;;;;;;;3.97;2.40;;;24.00;92.80;;;24.73;77.35;97821.75;5058559;28;20465;-82
2022/08/04 08:23:03;;;;;;;3.37;2.40;;;24.10;92.70;;;24.83;77.13;97818.19;5059976;28;20834;-83
2022/08/04 08:25:33;;;;;;;10.23;2.37;;;24.20;92.60;;;24.93;76.09;97823.41;5061120;28;20533;-82
2022/08/04 08:28:05;;;;;;;2.83;2.53;;;24.30;92.40;;;25.04;75.40;97817.69;5059476;28;20517;-82
2022/08/04 08:30:34;;;;;;;11.97;2.70;;;24.40;92.10;;;25.19;74.54;97818.56;5060141;28;20472;-82
2022/08/04 08:33:07;;;;;;;3.03;2.57;;;24.60;92.20;;;25.28;73.94;97809.63;5063260;28;20515;-82
2022/08/04 08:35:51;;;;;;;5.00;2.40;;;24.70;92.10;;;25.37;73.90;97813.22;5058153;28;20468;-83
2022/08/04 08:38:43;;;;;;;6.63;2.40;;;24.80;92.10;;;25.51;73.01;97808.03;5061878;28;21187;-82
2022/08/04 08:42:09;;;;;;;3.00;2.70;;;24.80;91.90;;;25.64;73.03;97819.88;5059168;28;20472;-82
2022/08/04 08:45:28;;;;;;;2.60;2.13;;;25.00;91.90;;;25.73;71.26;97804.75;5060739;28;20452;-82
2022/08/04 08:48:21;;;;;;;2.80;2.47;;;25.10;91.40;;;25.83;70.28;97810.75;5045109;28;20489;-83
2022/08/04 08:51:36;;;;;;;3.70;2.63;;;25.20;91.40;;;25.91;70.05;97811.97;5060889;28;20465;-82
2022/08/04 08:54:50;;;;;;;6.13;2.27;;;25.30;91.30;;;25.98;69.79;97807.03;5060339;28;20498;-82
2022/08/04 08:57:46;;;;;;;6.37;2.77;;;25.40;91.20;;;26.05;70.07;97810.16;5059858;28;21019;-83
2022/08/04 09:00:46;;;;;;;3.87;2.53;;;25.50;91.40;;;26.12;69.20;97802.53;5059145;28;20978;-82
2022/08/04 09:04:23;;;;;;;2.53;2.17;;;25.50;91.20;;;26.19;68.91;97811.03;5058792;28;20981;-82
2022/08/04 09:07:37;;;;;;;6.07;2.27;;;25.60;91.10;;;26.25;68.83;97812.53;5020003;28;20552;-82
2022/08/04 09:10:17;;;;;;;1.90;1.70;;;25.70;91.00;;;26.30;67.55;97815.13;5060890;28;20463;-82
2022/08/04 09:12:55;;;;;;;2.27;1.93;;;25.70;90.60;;;26.34;67.44;97809.97;5059557;28;20464;-83
2022/08/04 09:15:34;;;;;;;2.40;2.20;;;25.80;90.70;;;26.40;66.95;97804.22;5059053;28;20543;-82
2022/08/04 09:18:13;;;;;;;4.40;2.27;;;25.80;90.60;;;26.46;66.90;97802.25;5060522;28;20461;-83
2022/08/04 09:20:50;;;;;;;4.77;2.00;;;25.80;90.50;;;26.50;65.90;97808.63;5059002;28;20456;-82
2022/08/04 09:23:32;;;;;;;2.60;2.00;;;25.90;90.30;;;26.57;65.38;97811.72;5060088;28;20470;-83
2022/08/04 09:26:09;;;;;;;3.83;2.27;;;26.00;90.70;;;26.69;61.52;97805.88;5060449;28;20457;-83
2022/08/04 09:28:51;;;;;;;3.73;2.13;;;26.10;88.80;;;26.75;61.52;97800.09;5060580;28;20511;-82
2022/08/04 09:31:31;;;;;;;3.00;2.13;;;26.20;88.80;;;26.84;60.09;97805.59;5060997;28;20460;-83
2022/08/04 09:34:37;;;;;;;2.63;2.00;;;26.30;87.60;;;27.02;58.89;97800.13;5060657;28;20461;-82
2022/08/04 09:37:23;;;;;;;2.73;1.80;;;26.50;87.10;;;27.15;58.01;97798.53;5058619;28;20569;-82
2022/08/04 09:40:19;;;;;;;2.67;1.80;;;26.60;86.10;;;27.32;55.86;97790.66;5059306;28;20511;-83
2022/08/04 09:43:25;;;;;;;3.60;1.93;;;26.80;84.90;;;27.73;53.06;97789.78;5060166;28;20460;-83
2022/08/04 09:46:22;;;;;;;13.47;1.73;;;27.30;82.40;;;27.85;52.97;97785.44;5061055;28;21077;-83
2022/08/04 09:48:59;;;;;;;3.43;1.60;;;27.30;82.90;;;27.96;52.90;97780.63;5059496;28;20962;-82
2022/08/04 09:51:49;;;;;;;3.60;2.10;;;27.30;82.90;;;28.08;51.91;97783.56;5058545;28;20497;-83
2022/08/04 09:54:43;;;;;;;2.57;1.60;;;27.50;82.40;;;28.21;50.58;97785.41;5060998;28;20462;-83
2022/08/04 09:57:36;;;;;;;5.97;2.10;;;27.70;81.30;;;28.46;48.33;97784.75;5059612;28;20911;-82
2022/08/04 10:00:12;;;;;;;2.93;2.63;;;28.10;78.50;;;28.70;48.08;97783.63;5065631;28;20521;-82
2022/08/04 10:02:47;;;;;;;3.13;1.60;;;28.20;78.90;;;29.05;45.01;97784.56;5062728;28;20499;-82
2022/08/04 10:05:22;;;;;;;1.97;1.70;;;28.50;75.20;;;29.33;42.90;97785.91;5063673;28;20443;-82
2022/08/04 10:08:22;;;;;;;5.83;1.60;;;28.70;73.10;;;29.36;44.30;97779.91;5063589;28;20483;-83
2022/08/04 10:11:06;;;;;;;2.13;1.57;;;28.70;74.90;;;29.38;43.91;97780.34;5063911;28;20468;-82
2022/08/04 10:13:56;;;;;;;2.53;1.67;;;28.80;75.00;;;29.50;43.71;97771.66;5062552;28;21327;-83
2022/08/04 10:16:42;;;;;;;2.23;1.50;;;28.90;74.60;;;29.61;44.51;97775.63;5062577;28;20543;-82
2022/08/04 10:19:26;;;;;;;3.30;1.57;;;29.10;75.30;;;29.81;43.00;97775.00;5063245;28;20950;-82
2022/08/04 10:22:11;;;;;;;2.63;1.80;;;29.20;73.80;;;29.94;42.87;97760.56;5063345;28;20523;-82
2022/08/04 10:25:17;;;;;;;2.50;1.70;;;29.30;73.30;;;30.01;42.62;97771.66;5065832;28;20926;-83
2022/08/04 10:28:12;;;;;;;3.40;1.83;;;29.50;73.60;;;30.06;43.62;97773.41;5064891;28;20524;-83
2022/08/04 10:30:51;;;;;;;1.70;1.50;;;29.50;74.50;;;30.11;42.52;97773.22;5064237;28;20492;-83
2022/08/04 10:33:29;;;;;;;4.10;1.40;;;29.60;73.30;;;30.20;41.10;97772.09;5062704;28;20973;-84
2022/08/04 10:36:06;;;;;;;5.43;1.73;;;29.70;71.90;;;30.27;40.71;97775.09;5062781;28;20497;-82
2022/08/04 10:38:45;;;;;;;3.27;1.50;;;29.70;71.90;;;30.29;40.11;97772.09;5062136;28;20484;-83
2022/08/04 10:41:28;;;;;;;1.53;1.20;;;29.80;70.30;;;30.45;38.79;97768.56;5064125;28;20448;-83
2022/08/04 10:44:14;;;;;;;1.40;1.20;;;29.90;69.10;;;30.64;37.71;97764.69;5062606;28;20432;-82
2022/08/04 10:46:53;;;;;;;3.73;1.60;;;30.10;67.50;;;30.73;37.95;97762.75;5063259;28;20444;-83
2022/08/04 10:49:33;;;;;;;2.63;1.50;;;30.20;67.60;;;30.77;38.63;97756.38;5063932;28;20459;-82
2022/08/04 10:52:11;;;;;;;3.67;1.30;;;30.20;68.70;;;30.84;37.87;97759.38;5061713;28;20463;-83
2022/08/04 10:54:51;;;;;;;1.67;1.40;;;30.20;69.00;;;31.04;36.42;97763.25;5062919;28;20444;-83
2022/08/04 10:57:29;;;;;;;2.13;1.50;;;30.40;66.30;;;31.12;37.43;97767.81;5063414;28;20456;-83
2022/08/04 11:00:03;;;;;;;1.93;1.40;;;30.50;67.00;;;31.13;37.45;97755.09;5062691;28;20859;-82
2022/08/04 11:02:43;;;;;;;4.73;1.80;;;30.40;67.00;;;31.21;36.73;97756.94;5062158;28;20515;-83
2022/08/04 11:05:24;;;;;;;2.83;1.57;;;30.60;65.90;;;31.27;36.57;97740.22;5062790;28;20479;-84
2022/08/04 11:08:02;;;;;;;5.77;1.57;;;30.60;65.40;;;31.39;35.35;97743.00;5063013;28;20484;-84
2022/08/04 11:10:46;;;;;;;1.60;1.50;;;30.80;65.10;;;31.50;34.89;97748.78;5061440;28;20533;-84
2022/08/04 11:13:17;;;;;;;1.77;1.50;;;30.90;64.50;;;31.58;35.31;97749.88;5062528;28;20606;-82
2022/08/04 11:16:04;;;;;;;18.57;1.80;;;30.90;64.90;;;31.63;33.65;97742.34;5062715;28;20455;-83
2022/08/04 11:18:46;;;;;;;3.13;1.30;;;31.00;62.60;;;31.73;34.34;97751.97;5060465;28;20488;-83
2022/08/04 11:21:21;;;;;;;1.70;1.30;;;31.10;62.50;;;31.84;32.87;97739.63;5061745;28;21096;-83
2022/08/04 11:24:03;;;;;;;1.80;1.60;;;31.10;60.70;;;31.80;32.75;97742.19;5061544;28;20517;-83
2022/08/04 11:26:48;;;;;;;2.37;1.40;;;31.10;61.20;;;31.89;33.36;97742.13;5059950;28;20449;-83
2022/08/04 11:29:29;;;;;;;1.90;1.53;;;31.20;62.40;;;31.97;34.59;97741.22;5058028;28;20492;-83
2022/08/04 11:32:03;;;;;;;4.00;1.40;;;31.20;63.40;;;31.96;33.63;97745.09;5061983;28;20471;-82